Crackville, Louisiana
Current Conditions -  °F | °C
As of 5:15 PM on Wednesday 22 Oct 2014 (Local Time) from KOPL Reporting Station
Clear Clear  
Wind Chill: 75°   Ceiling: Unl
Heat Index: 75°   Visibility: 10mi
Dew Point: 52°   Wind: 8mph
Humidity: 44%   Direction: 10°N
Pressure: 30.04"   Gusts: NA
Location:  30.9908°N, 92.0816°W
Report Text: KOPL 222215Z AUTO 01007KT 10SM CLR 24/11 A3004 RMK AO2 T02400111
Loading
Personal Weather Stations






























Interactive Weather Map
Tropical Storm Tracking
New forecast layout! Learn more

10-Day Weather Forecast

Advertisements
Track Severe Weather on mobile